createdAt,value
2019-02-19T00:00:03.545Z,11.73
2019-02-19T00:01:39.350Z,10.77
2019-02-19T00:31:22.443Z,8.93
2019-02-19T00:32:57.447Z,8.60
2019-02-19T00:34:32.433Z,10.20
2019-02-19T00:36:07.521Z,8.13
2019-02-19T00:37:42.579Z,8.67
2019-02-19T00:39:17.631Z,9.00
2019-02-19T00:40:52.650Z,9.53
2019-02-19T00:42:27.749Z,10.53
2019-02-19T00:44:02.707Z,8.00
2019-02-19T00:45:37.738Z,8.13
2019-02-19T00:47:12.706Z,6.80
2019-02-19T00:48:47.699Z,11.17
2019-02-19T00:50:22.750Z,8.30
2019-02-19T00:51:57.793Z,8.40
2019-02-19T00:53:32.838Z,7.17
2019-02-19T00:55:08.186Z,8.43
2019-02-19T00:56:43.163Z,7.97
2019-02-19T00:58:36.147Z,8.57
2019-02-19T01:00:13.109Z,8.33
2019-02-19T01:01:47.865Z,7.47
2019-02-19T01:03:23.466Z,9.17
2019-02-19T01:04:58.349Z,8.87
2019-02-19T01:06:33.135Z,7.70
2019-02-19T01:08:07.990Z,7.03
2019-02-19T01:09:42.790Z,9.43
2019-02-19T01:11:17.645Z,8.60
2019-02-19T01:12:52.557Z,8.23
2019-02-19T01:22:17.481Z,7.47
2019-02-19T01:23:52.199Z,9.70
2019-02-19T01:25:26.920Z,7.43
2019-02-19T01:27:01.686Z,7.33
2019-02-19T01:28:37.049Z,8.97
2019-02-19T01:30:12.346Z,6.60
2019-02-19T01:31:47.094Z,6.93
2019-02-19T01:33:21.807Z,6.93
2019-02-19T01:34:56.602Z,7.20
2019-02-19T01:36:31.340Z,7.93
2019-02-19T01:38:06.154Z,9.70
2019-02-19T01:39:40.958Z,8.17
2019-02-19T01:41:15.822Z,6.60
2019-02-19T01:42:50.557Z,8.00
2019-02-19T01:44:25.295Z,8.73
2019-02-19T01:46:00.091Z,7.10
2019-02-19T01:47:34.883Z,9.47
2019-02-19T01:49:10.013Z,8.87
2019-02-19T01:50:44.809Z,7.73
2019-02-19T01:52:19.577Z,8.60
2019-02-19T01:53:54.361Z,9.23
2019-02-19T01:55:29.072Z,6.50
2019-02-19T01:57:03.921Z,7.60
2019-02-19T01:58:38.661Z,8.67
2019-02-19T02:00:14.006Z,7.87
2019-02-19T02:01:48.753Z,11.67
2019-02-19T02:03:23.526Z,9.70
2019-02-19T02:04:58.271Z,7.67
2019-02-19T02:06:32.981Z,7.07
2019-02-19T02:08:07.793Z,9.30
2019-02-19T02:09:43.665Z,6.73
2019-02-19T02:11:18.422Z,8.93
2019-02-19T02:12:53.158Z,7.57
2019-02-19T02:14:27.951Z,7.40
2019-02-19T02:16:02.686Z,10.00
2019-02-19T02:17:37.569Z,8.27
2019-02-19T02:19:12.349Z,6.63
2019-02-19T02:20:47.142Z,8.77
2019-02-19T02:22:21.852Z,8.43
2019-02-19T02:23:56.590Z,7.57
2019-02-19T02:25:31.414Z,7.13
2019-02-19T02:27:06.121Z,8.77
2019-02-19T02:28:40.873Z,10.17
2019-02-19T02:30:15.599Z,7.17
2019-02-19T02:31:50.363Z,7.53
2019-02-19T02:33:26.061Z,9.27
2019-02-19T02:35:00.786Z,8.33
2019-02-19T02:36:35.581Z,10.80
2019-02-19T02:38:10.332Z,9.67
2019-02-19T02:39:45.094Z,7.60
2019-02-19T02:41:19.868Z,8.70
2019-02-19T02:42:54.638Z,6.73
2019-02-19T02:44:29.359Z,10.87
2019-02-19T02:46:04.157Z,7.77
2019-02-19T02:47:38.893Z,8.03
2019-02-19T02:49:13.598Z,6.80
2019-02-19T02:50:48.376Z,9.57
2019-02-19T02:52:23.262Z,8.07
2019-02-19T02:53:58.073Z,7.90
2019-02-19T02:55:32.890Z,7.17
2019-02-19T02:57:07.620Z,7.83
2019-02-19T02:58:42.422Z,9.50
2019-02-19T03:00:17.312Z,9.47
2019-02-19T03:01:52.050Z,7.93
2019-02-19T03:03:26.817Z,7.23
2019-02-19T03:05:02.691Z,7.37
2019-02-19T03:07:02.407Z,7.67
2019-02-19T03:08:37.193Z,8.27
2019-02-19T03:10:12.047Z,10.33
2019-02-19T03:11:46.772Z,7.60
2019-02-19T03:13:21.491Z,10.07
2019-02-19T03:14:56.190Z,8.83
2019-02-19T03:16:31.034Z,8.27
2019-02-19T03:18:05.835Z,7.87
2019-02-19T03:19:40.669Z,11.17
2019-02-19T03:21:15.482Z,8.73
2019-02-19T03:22:50.219Z,9.87
2019-02-19T03:24:26.416Z,8.33
2019-02-19T03:26:01.225Z,9.83
2019-02-19T03:27:35.969Z,10.40
2019-02-19T03:29:11.021Z,10.40
2019-02-19T03:30:45.879Z,11.07
2019-02-19T03:32:20.662Z,9.33
2019-02-19T03:33:55.414Z,10.90
2019-02-19T03:35:30.228Z,12.30
2019-02-19T03:37:06.066Z,10.33
2019-02-19T03:38:40.837Z,9.40
2019-02-19T03:40:15.883Z,10.57
2019-02-19T03:41:51.057Z,8.33
2019-02-19T03:43:25.798Z,10.03
2019-02-19T03:45:00.586Z,12.93
2019-02-19T03:46:35.387Z,10.03
2019-02-19T03:48:10.101Z,9.63
2019-02-19T03:49:44.837Z,9.07
2019-02-19T03:51:19.573Z,11.57
2019-02-19T03:52:54.310Z,10.37
2019-02-19T03:54:29.154Z,13.70
2019-02-19T03:56:04.005Z,9.80
2019-02-19T03:57:38.998Z,12.00
2019-02-19T03:59:13.826Z,9.37
2019-02-19T04:00:49.525Z,10.47
2019-02-19T04:02:24.259Z,10.17
2019-02-19T04:03:59.059Z,10.03
2019-02-19T04:05:34.053Z,11.50
2019-02-19T04:07:08.790Z,14.93
2019-02-19T04:08:43.535Z,11.17
2019-02-19T04:10:18.338Z,10.43
2019-02-19T04:11:53.085Z,10.90
2019-02-19T04:13:27.796Z,13.63
2019-02-19T04:15:02.731Z,12.23
2019-02-19T04:16:37.537Z,13.37
2019-02-19T04:18:12.264Z,13.70
2019-02-19T04:19:46.987Z,14.67
2019-02-19T04:21:21.710Z,12.10
2019-02-19T04:22:56.449Z,12.67
2019-02-19T04:24:31.161Z,12.80
2019-02-19T04:26:05.994Z,15.87
2019-02-19T04:27:40.795Z,13.73
2019-02-19T04:29:15.556Z,11.83
2019-02-19T04:30:50.310Z,13.30
2019-02-19T04:32:25.038Z,13.40
2019-02-19T04:33:59.770Z,19.23
2019-02-19T04:35:34.647Z,12.87
2019-02-19T04:37:09.398Z,15.53
2019-02-19T04:38:44.125Z,17.07
2019-02-19T04:40:18.841Z,13.07
2019-02-19T04:41:53.566Z,14.43
2019-02-19T04:43:28.345Z,16.67
2019-02-19T04:45:03.070Z,18.03
2019-02-19T04:46:38.875Z,18.03
2019-02-19T04:48:13.619Z,19.17
2019-02-19T04:49:48.365Z,16.87
2019-02-19T04:51:23.107Z,17.13
2019-02-19T04:52:57.970Z,18.67
2019-02-19T04:54:32.879Z,19.13
2019-02-19T04:56:07.606Z,18.57
2019-02-19T04:57:42.436Z,23.67
2019-02-19T04:59:17.218Z,21.50
2019-02-19T05:00:52.019Z,21.63
2019-02-19T05:02:26.898Z,23.07
2019-02-19T05:04:01.637Z,20.67
2019-02-19T05:05:36.478Z,22.97
2019-02-19T05:07:11.276Z,26.90
2019-02-19T05:08:46.009Z,22.30
2019-02-19T05:10:20.832Z,22.83
2019-02-19T05:11:55.658Z,24.50
2019-02-19T05:13:30.421Z,25.10
2019-02-19T05:15:05.706Z,23.43
2019-02-19T05:16:41.281Z,24.13
2019-02-19T05:18:16.113Z,25.50
2019-02-19T05:19:51.002Z,24.60
2019-02-19T05:21:25.795Z,26.40
2019-02-19T05:23:00.660Z,24.83
2019-02-19T05:24:35.463Z,25.37
2019-02-19T05:26:10.188Z,25.47
2019-02-19T05:27:45.145Z,29.73
2019-02-19T05:29:19.973Z,23.97
2019-02-19T05:30:54.719Z,25.80
2019-02-19T05:32:29.478Z,22.87
2019-02-19T05:34:04.333Z,24.07
2019-02-19T05:35:39.081Z,23.87
2019-02-19T05:37:13.894Z,27.03
2019-02-19T05:38:48.730Z,23.73
2019-02-19T05:40:23.526Z,22.87
2019-02-19T05:41:58.295Z,23.83
2019-02-19T05:43:33.077Z,27.00
2019-02-19T05:45:08.123Z,24.10
2019-02-19T05:46:49.566Z,25.63
2019-02-19T05:48:19.589Z,25.00
2019-02-19T05:49:54.485Z,23.07
2019-02-19T05:51:29.345Z,24.03
2019-02-19T05:53:04.239Z,24.70
2019-02-19T05:54:39.046Z,25.07
2019-02-19T05:56:13.766Z,24.87
2019-02-19T05:57:48.514Z,26.83
2019-02-19T05:59:23.342Z,26.60
2019-02-19T06:00:58.109Z,23.93
2019-02-19T06:02:32.864Z,24.27
2019-02-19T06:04:07.686Z,23.10
2019-02-19T06:05:42.722Z,21.93
2019-02-19T06:07:17.477Z,24.60
2019-02-19T06:08:52.351Z,24.23
2019-02-19T06:10:27.159Z,24.33
2019-02-19T06:12:01.874Z,27.33
2019-02-19T06:13:36.607Z,24.37
2019-02-19T06:15:12.256Z,25.93
2019-02-19T06:16:47.015Z,25.57
2019-02-19T06:18:22.775Z,26.80
2019-02-19T06:19:57.618Z,25.60
2019-02-19T06:21:32.337Z,25.60
2019-02-19T06:23:07.086Z,28.60
2019-02-19T06:24:41.981Z,27.50
2019-02-19T06:26:16.705Z,27.43
2019-02-19T06:27:51.510Z,23.43
2019-02-19T06:29:26.271Z,24.37
2019-02-19T06:31:01.009Z,27.33
2019-02-19T06:32:35.718Z,24.30
2019-02-19T06:34:10.517Z,27.17
2019-02-19T06:35:45.252Z,25.77
2019-02-19T06:37:20.018Z,26.90
2019-02-19T06:38:54.747Z,24.20
2019-02-19T06:40:30.315Z,25.47
2019-02-19T06:42:05.066Z,27.13
2019-02-19T06:43:39.900Z,27.23
2019-02-19T06:45:14.728Z,26.77
2019-02-19T06:46:49.524Z,31.03
2019-02-19T06:48:24.361Z,22.97
2019-02-19T06:49:59.104Z,28.63
2019-02-19T06:51:33.921Z,22.53
2019-02-19T06:53:08.673Z,25.57
2019-02-19T06:54:43.506Z,25.63
2019-02-19T06:56:18.237Z,25.70
2019-02-19T06:57:52.997Z,28.80
2019-02-19T06:59:27.790Z,28.10
2019-02-19T07:01:02.638Z,24.40
2019-02-19T07:02:56.614Z,24.90
2019-02-19T07:04:35.592Z,22.17
2019-02-19T07:06:10.925Z,26.83
2019-02-19T07:07:45.742Z,27.80
2019-02-19T07:09:20.462Z,27.17
2019-02-19T07:10:55.221Z,24.63
2019-02-19T07:12:30.029Z,25.47
2019-02-19T07:14:05.113Z,27.13
2019-02-19T07:15:39.981Z,25.37
2019-02-19T07:17:15.913Z,24.83
2019-02-19T07:18:51.165Z,23.20
2019-02-19T07:20:26.881Z,23.90
2019-02-19T07:22:01.671Z,23.07
2019-02-19T07:23:36.553Z,25.03
2019-02-19T07:25:11.453Z,24.33
2019-02-19T07:26:46.183Z,21.73
2019-02-19T07:28:20.901Z,20.33
2019-02-19T07:29:55.671Z,20.80
2019-02-19T07:31:30.461Z,20.10
2019-02-19T07:33:05.294Z,19.40
2019-02-19T07:34:41.029Z,18.37
2019-02-19T07:36:15.926Z,19.53
2019-02-19T07:37:50.674Z,19.47
2019-02-19T07:39:25.475Z,16.83
2019-02-19T07:41:00.217Z,13.80
2019-02-19T07:42:35.033Z,15.40
2019-02-19T07:44:09.809Z,14.43
2019-02-19T07:45:44.616Z,17.23
2019-02-19T07:47:24.619Z,15.87
2019-02-19T07:48:55.835Z,15.13
2019-02-19T07:50:30.645Z,15.67
2019-02-19T07:52:05.487Z,15.40
2019-02-19T07:53:40.357Z,15.03
2019-02-19T07:55:15.254Z,15.17
2019-02-19T07:56:50.017Z,12.43
2019-02-19T07:58:24.826Z,14.37
2019-02-19T07:59:59.631Z,13.17
2019-02-19T08:01:34.442Z,12.93
2019-02-19T08:03:09.185Z,12.30
2019-02-19T08:04:44.962Z,10.60
2019-02-19T08:06:19.781Z,13.70
2019-02-19T08:07:54.621Z,12.23
2019-02-19T08:09:29.413Z,13.67
2019-02-19T08:11:04.205Z,12.23
2019-02-19T08:12:38.942Z,11.03
2019-02-19T08:14:13.860Z,11.37
2019-02-19T08:15:48.661Z,12.03
2019-02-19T08:17:23.441Z,12.37
2019-02-19T08:18:58.258Z,13.97
2019-02-19T08:20:33.132Z,9.90
2019-02-19T08:22:07.834Z,10.80
2019-02-19T08:23:42.571Z,10.77
2019-02-19T08:25:17.371Z,12.93
2019-02-19T08:26:52.247Z,14.67
2019-02-19T08:28:27.068Z,12.43
2019-02-19T08:30:01.809Z,11.40
2019-02-19T08:31:36.678Z,11.37
2019-02-19T08:33:11.490Z,12.60
2019-02-19T08:34:46.283Z,11.07
2019-02-19T08:36:21.077Z,11.67
2019-02-19T08:37:55.813Z,11.60
2019-02-19T08:39:31.034Z,11.30
2019-02-19T08:41:05.814Z,10.93
2019-02-19T08:42:40.573Z,13.77
2019-02-19T08:44:15.316Z,12.33
2019-02-19T08:45:50.042Z,12.00
2019-02-19T08:47:25.214Z,13.93
2019-02-19T08:48:59.938Z,14.23
2019-02-19T08:50:34.681Z,13.23
2019-02-19T08:52:09.525Z,14.57
2019-02-19T08:53:44.257Z,13.77
2019-02-19T08:55:19.068Z,14.70
2019-02-19T08:56:53.878Z,15.97
2019-02-19T08:58:28.706Z,15.70
2019-02-19T09:00:04.038Z,13.20
2019-02-19T09:01:40.550Z,14.27
2019-02-19T09:03:16.874Z,15.63
2019-02-19T09:04:52.041Z,15.80
2019-02-19T09:06:27.669Z,17.03
2019-02-19T09:08:02.535Z,17.80
2019-02-19T09:09:37.686Z,17.40
2019-02-19T09:11:12.893Z,14.73
2019-02-19T09:12:47.619Z,18.10
2019-02-19T09:14:22.503Z,15.40
2019-02-19T09:15:57.245Z,17.27
2019-02-19T09:17:31.991Z,15.83
2019-02-19T09:19:06.736Z,16.90
2019-02-19T09:20:41.473Z,13.93
2019-02-19T09:22:16.333Z,16.20
2019-02-19T09:23:51.137Z,15.35
2019-02-19T09:25:25.965Z,12.13
2019-02-19T09:27:00.766Z,17.67
2019-02-19T09:28:35.545Z,17.93
2019-02-19T09:30:11.589Z,15.17
2019-02-19T09:31:47.475Z,15.07
2019-02-19T09:33:22.273Z,14.37
2019-02-19T09:34:58.123Z,15.70
2019-02-19T09:36:32.872Z,13.07
2019-02-19T09:38:07.759Z,16.63
2019-02-19T09:39:42.482Z,13.60
2019-02-19T09:41:17.270Z,13.80
2019-02-19T09:42:52.037Z,13.50
2019-02-19T09:44:26.859Z,14.40
2019-02-19T09:46:01.673Z,14.67
2019-02-19T09:47:36.539Z,16.83
2019-02-19T09:49:11.286Z,12.43
2019-02-19T09:50:46.042Z,14.40
2019-02-19T09:52:20.792Z,14.87
2019-02-19T09:53:55.545Z,13.10
2019-02-19T09:55:30.424Z,12.37
2019-02-19T09:57:05.259Z,14.83
2019-02-19T09:58:40.094Z,13.10
2019-02-19T10:00:15.094Z,12.60
2019-02-19T10:01:49.911Z,14.23
2019-02-19T10:03:24.810Z,14.60
2019-02-19T10:04:59.994Z,14.30
2019-02-19T10:06:34.773Z,11.50
2019-02-19T10:08:09.504Z,13.67
2019-02-19T10:09:44.352Z,14.37
2019-02-19T10:11:19.685Z,11.03
2019-02-19T10:12:54.486Z,13.00
2019-02-19T10:14:29.283Z,14.77
2019-02-19T10:16:04.098Z,12.47
2019-02-19T10:17:38.831Z,15.00
2019-02-19T10:19:13.660Z,11.23
2019-02-19T10:20:48.373Z,13.57
2019-02-19T10:22:23.174Z,15.33
2019-02-19T10:23:57.910Z,15.07
2019-02-19T10:25:32.686Z,12.53
2019-02-19T10:27:07.617Z,16.27
2019-02-19T10:28:42.377Z,13.60
2019-02-19T10:30:17.314Z,15.40
2019-02-19T10:31:52.213Z,11.10
2019-02-19T10:33:26.985Z,11.60
2019-02-19T10:35:01.749Z,13.07
2019-02-19T10:36:38.564Z,12.37
2019-02-19T10:38:13.077Z,15.60
2019-02-19T10:39:47.833Z,11.53
2019-02-19T10:41:22.648Z,13.27
2019-02-19T10:42:57.443Z,10.80
2019-02-19T10:44:32.246Z,9.13
2019-02-19T10:46:07.086Z,10.90
2019-02-19T10:47:41.878Z,12.13
2019-02-19T10:49:16.623Z,15.33
2019-02-19T10:50:51.447Z,15.10
2019-02-19T10:52:26.256Z,14.77
2019-02-19T10:54:01.057Z,14.90
2019-02-19T10:55:35.813Z,11.83
2019-02-19T10:57:10.663Z,13.13
2019-02-19T10:58:45.399Z,10.80
2019-02-19T11:00:20.722Z,12.80
2019-02-19T11:01:55.450Z,12.33
2019-02-19T11:03:30.252Z,10.77
2019-02-19T11:05:05.593Z,12.47
2019-02-19T11:06:40.504Z,12.70
2019-02-19T11:08:15.293Z,11.83
2019-02-19T11:09:50.025Z,12.63
2019-02-19T11:11:24.946Z,11.27
2019-02-19T11:12:59.745Z,12.80
2019-02-19T11:14:34.586Z,11.80
2019-02-19T11:16:09.391Z,11.43
2019-02-19T11:17:44.261Z,13.80
2019-02-19T11:19:19.047Z,10.83
2019-02-19T11:20:53.783Z,10.03
2019-02-19T11:22:28.575Z,10.97
2019-02-19T11:24:03.397Z,13.93
2019-02-19T11:25:38.218Z,11.97
2019-02-19T11:27:12.988Z,13.77
2019-02-19T11:28:48.837Z,14.23
2019-02-19T11:30:23.586Z,10.60
2019-02-19T11:31:58.290Z,12.10
2019-02-19T11:33:33.175Z,11.53
2019-02-19T11:35:08.554Z,11.27
2019-02-19T11:36:43.364Z,13.43
2019-02-19T11:38:18.194Z,12.53
2019-02-19T11:39:52.914Z,15.10
2019-02-19T11:41:27.774Z,8.53
2019-02-19T11:43:02.484Z,9.77
2019-02-19T11:44:37.225Z,11.00
2019-02-19T11:46:11.950Z,10.50
2019-02-19T11:47:46.757Z,13.00
2019-02-19T11:49:21.548Z,10.13
2019-02-19T11:50:56.389Z,9.23
2019-02-19T11:52:31.184Z,10.27
2019-02-19T11:54:05.973Z,10.87
2019-02-19T11:55:40.696Z,9.70
2019-02-19T11:57:15.436Z,9.40
2019-02-19T11:58:50.233Z,9.33
2019-02-19T12:00:32.849Z,8.70
2019-02-19T12:02:11.930Z,10.97
2019-02-19T12:03:46.669Z,10.17
2019-02-19T12:05:21.462Z,10.77
2019-02-19T12:06:56.173Z,9.83
2019-02-19T12:08:38.840Z,9.23
2019-02-19T12:10:07.779Z,9.43
2019-02-19T12:11:42.501Z,6.93
2019-02-19T12:13:17.290Z,8.57
2019-02-19T12:14:52.013Z,8.63
2019-02-19T12:16:26.906Z,8.43
2019-02-19T12:18:01.634Z,16.17
2019-02-19T12:19:36.407Z,8.20
2019-02-19T12:21:11.126Z,9.57
2019-02-19T12:22:45.842Z,7.57
2019-02-19T12:24:20.566Z,8.80
2019-02-19T12:25:55.334Z,7.63
2019-02-19T12:27:30.049Z,7.70
2019-02-19T12:29:04.850Z,10.60
2019-02-19T12:30:39.662Z,8.07
2019-02-19T12:32:14.394Z,7.23
2019-02-19T12:33:49.133Z,8.37
2019-02-19T12:35:23.904Z,8.53
2019-02-19T12:36:58.610Z,5.70
2019-02-19T12:38:33.433Z,7.73
2019-02-19T12:40:09.173Z,9.93
2019-02-19T12:41:44.038Z,6.93
2019-02-19T12:43:18.769Z,6.10
2019-02-19T12:44:53.495Z,6.77
2019-02-19T12:46:28.359Z,5.90
2019-02-19T12:48:03.090Z,6.60
2019-02-19T12:49:37.819Z,8.07
2019-02-19T12:51:12.551Z,7.80
2019-02-19T12:52:48.196Z,5.10
2019-02-19T12:54:23.090Z,8.30
2019-02-19T12:55:57.914Z,5.73
2019-02-19T12:57:32.633Z,7.77
2019-02-19T12:59:07.416Z,6.83
2019-02-19T13:00:42.195Z,6.43
2019-02-19T13:02:16.978Z,7.33
2019-02-19T13:03:51.742Z,5.93
2019-02-19T13:05:26.537Z,5.33
2019-02-19T13:07:01.385Z,7.23
2019-02-19T13:08:37.338Z,7.87
2019-02-19T13:10:12.410Z,8.40
2019-02-19T13:11:47.197Z,8.00
2019-02-19T13:13:21.933Z,7.83
2019-02-19T13:14:56.656Z,6.17
2019-02-19T13:16:31.489Z,5.50
2019-02-19T13:18:06.305Z,7.37
2019-02-19T13:19:41.793Z,7.03
2019-02-19T13:21:16.525Z,6.47
2019-02-19T13:22:51.299Z,5.47
2019-02-19T13:24:26.074Z,7.43
2019-02-19T13:26:00.870Z,7.80
2019-02-19T13:27:35.595Z,6.87
2019-02-19T13:29:10.349Z,7.03
2019-02-19T13:30:45.074Z,5.33
2019-02-19T13:32:19.866Z,6.70
2019-02-19T13:33:54.606Z,7.00
2019-02-19T13:35:29.487Z,5.23
2019-02-19T13:37:04.325Z,4.63
2019-02-19T13:38:39.118Z,7.17
2019-02-19T13:40:14.237Z,4.90
2019-02-19T13:41:49.046Z,3.97
2019-02-19T13:43:23.951Z,6.73
2019-02-19T13:44:58.794Z,7.63
2019-02-19T13:46:33.630Z,6.10
2019-02-19T13:48:08.468Z,6.60
2019-02-19T13:49:43.246Z,5.80
2019-02-19T13:51:18.034Z,6.67
2019-02-19T13:53:01.441Z,4.83
2019-02-19T13:54:44.779Z,6.80
2019-02-19T13:56:19.533Z,5.37
2019-02-19T13:57:54.302Z,5.03
2019-02-19T13:59:29.043Z,5.97
2019-02-19T14:01:04.185Z,7.37
2019-02-19T14:02:38.901Z,6.10
2019-02-19T14:04:13.633Z,5.50
2019-02-19T14:05:48.473Z,4.83
2019-02-19T14:07:23.296Z,7.90
2019-02-19T14:08:58.041Z,5.43
2019-02-19T14:10:32.788Z,5.10
2019-02-19T14:12:07.581Z,4.87
2019-02-19T14:13:48.241Z,6.37
2019-02-19T14:15:39.111Z,4.17
2019-02-19T14:17:16.568Z,6.93
2019-02-19T14:18:56.310Z,4.53
2019-02-19T14:21:05.238Z,4.83
2019-02-19T14:22:57.858Z,5.93
2019-02-19T14:24:54.569Z,3.97
2019-02-19T14:26:44.589Z,6.20
2019-02-19T14:28:37.338Z,4.60
2019-02-19T14:30:29.959Z,2.97
2019-02-19T14:32:19.330Z,5.30
2019-02-19T14:34:15.611Z,3.73
2019-02-19T14:36:07.167Z,2.57
2019-02-19T14:37:57.142Z,3.10
2019-02-19T14:39:44.266Z,3.47
2019-02-19T14:41:50.323Z,2.90
2019-02-19T14:43:43.026Z,4.27
2019-02-19T14:45:35.687Z,4.63
2019-02-19T14:47:47.787Z,2.83
2019-02-19T14:49:47.333Z,4.87
2019-02-19T14:51:36.173Z,4.17
2019-02-19T14:53:17.630Z,4.27
2019-02-19T14:55:09.349Z,3.43
2019-02-19T14:57:03.287Z,3.70
2019-02-19T14:58:57.168Z,4.87
2019-02-19T15:00:46.788Z,4.93
2019-02-19T15:02:39.754Z,4.60
2019-02-19T15:04:40.737Z,5.00
2019-02-19T15:06:33.408Z,7.03
2019-02-19T15:08:14.271Z,3.20
2019-02-19T15:10:06.717Z,4.30
2019-02-19T15:12:00.290Z,5.30
2019-02-19T15:13:45.332Z,8.07
2019-02-19T15:15:42.239Z,3.67
2019-02-19T15:17:35.791Z,6.57
2019-02-19T15:19:39.103Z,6.50
2019-02-19T15:21:34.617Z,4.77
2019-02-19T15:23:17.605Z,5.87
2019-02-19T15:25:26.570Z,5.30
2019-02-19T15:27:10.578Z,4.13
2019-02-19T15:28:56.961Z,4.03
2019-02-19T15:30:48.246Z,4.57
2019-02-19T15:32:47.943Z,5.43
2019-02-19T15:34:40.444Z,5.47
2019-02-19T15:36:42.910Z,4.47
2019-02-19T15:38:38.590Z,5.07
2019-02-19T15:40:33.718Z,4.47
2019-02-19T15:42:17.929Z,3.97
2019-02-19T15:43:59.254Z,3.03
2019-02-19T15:46:02.637Z,3.30
2019-02-19T15:48:02.534Z,3.83
2019-02-19T15:49:55.302Z,5.47
2019-02-19T15:51:47.197Z,4.63
2019-02-19T15:53:43.828Z,5.23
2019-02-19T15:55:40.605Z,5.93
2019-02-19T15:57:35.825Z,6.37
2019-02-19T15:59:21.734Z,4.40
2019-02-19T16:01:14.419Z,6.20
2019-02-19T16:03:11.209Z,3.97
2019-02-19T16:04:54.849Z,4.00
2019-02-19T16:06:57.829Z,6.00
2019-02-19T16:08:54.669Z,9.73
2019-02-19T16:10:44.469Z,5.07
2019-02-19T16:12:24.620Z,4.37
2019-02-19T16:14:05.444Z,5.83
2019-02-19T16:16:04.275Z,4.73
2019-02-19T16:17:49.757Z,6.07
2019-02-19T16:19:33.375Z,4.27
2019-02-19T16:21:18.932Z,4.30
2019-02-19T16:23:21.701Z,5.60
2019-02-19T16:25:24.598Z,6.23
2019-02-19T16:27:06.245Z,4.60
2019-02-19T16:28:49.577Z,6.20
2019-02-19T16:30:52.443Z,5.23
2019-02-19T16:32:43.769Z,5.63
2019-02-19T16:34:40.389Z,5.37
2019-02-19T16:36:34.238Z,4.20
2019-02-19T16:38:21.198Z,6.17
2019-02-19T16:40:13.616Z,5.07
2019-02-19T16:42:25.878Z,5.97
2019-02-19T16:44:11.051Z,7.00
2019-02-19T16:46:07.801Z,5.67
2019-02-19T16:47:58.626Z,4.87
2019-02-19T16:49:47.157Z,5.77
2019-02-19T16:51:40.957Z,4.63
2019-02-19T16:53:28.882Z,3.93
2019-02-19T16:55:15.860Z,8.13
2019-02-19T16:57:17.689Z,6.63
2019-02-19T16:59:14.342Z,4.67
2019-02-19T17:01:03.198Z,6.30
2019-02-19T17:03:03.274Z,9.47
2019-02-19T17:05:00.362Z,6.90
2019-02-19T17:07:00.341Z,6.60
2019-02-19T17:08:53.732Z,8.33
2019-02-19T17:10:44.224Z,8.80
2019-02-19T17:12:36.538Z,8.33
2019-02-19T17:14:39.376Z,7.07
2019-02-19T17:16:45.467Z,10.73
2019-02-19T17:18:51.456Z,8.33
2019-02-19T17:20:35.378Z,6.50
2019-02-19T17:22:30.425Z,9.57
2019-02-19T17:24:15.823Z,8.77
2019-02-19T17:26:00.990Z,7.93
2019-02-19T17:28:01.909Z,10.43
2019-02-19T17:29:55.793Z,7.97
2019-02-19T17:31:37.282Z,10.50
2019-02-19T17:33:22.855Z,10.17
2019-02-19T17:35:22.719Z,9.97
2019-02-19T17:37:34.489Z,9.00
2019-02-19T17:39:37.099Z,9.57
2019-02-19T17:41:45.986Z,8.10
2019-02-19T17:43:44.317Z,4.77
2019-02-19T17:45:50.570Z,4.80
2019-02-19T17:47:53.464Z,3.03
2019-02-19T17:49:36.989Z,6.40
2019-02-19T17:51:30.954Z,3.87
2019-02-19T17:53:29.122Z,2.77
2019-02-19T17:55:17.399Z,2.93
2019-02-19T17:57:09.998Z,2.93
2019-02-19T17:58:53.428Z,2.70
2019-02-19T18:00:37.569Z,4.63
2019-02-19T18:02:22.725Z,2.80
2019-02-19T18:04:28.951Z,3.23
2019-02-19T18:06:11.497Z,3.23
2019-02-19T18:07:53.808Z,2.53
2019-02-19T18:09:34.653Z,3.07
2019-02-19T18:11:31.681Z,2.53
2019-02-19T18:13:24.526Z,1.97
2019-02-19T18:15:16.982Z,2.07
2019-02-19T18:17:03.676Z,1.83
2019-02-19T18:18:49.148Z,2.20
2019-02-19T18:20:23.960Z,1.60
2019-02-19T18:21:58.701Z,3.57
2019-02-19T18:23:33.486Z,2.23
2019-02-19T18:25:08.370Z,1.93
2019-02-19T18:26:44.724Z,1.70
2019-02-19T18:28:19.774Z,2.53
2019-02-19T18:29:54.591Z,3.10
2019-02-19T18:31:29.470Z,1.30
2019-02-19T18:33:04.299Z,6.90
2019-02-19T18:34:39.117Z,11.30
2019-02-19T18:36:14.106Z,9.83
2019-02-19T18:37:49.003Z,3.77
2019-02-19T18:39:23.758Z,2.67
2019-02-19T18:40:58.523Z,2.17
2019-02-19T18:42:33.253Z,2.53
2019-02-19T18:44:08.069Z,1.83
2019-02-19T18:45:42.871Z,2.47
2019-02-19T18:47:17.593Z,3.07
2019-02-19T18:48:52.311Z,2.80
2019-02-19T18:50:27.109Z,3.23
2019-02-19T18:52:01.969Z,2.23
2019-02-19T18:53:36.706Z,3.10
2019-02-19T18:55:11.515Z,3.43
2019-02-19T18:56:46.312Z,3.47
2019-02-19T18:58:21.205Z,3.23
2019-02-19T18:59:56.030Z,4.27
2019-02-19T19:01:30.817Z,3.70
2019-02-19T19:03:05.679Z,4.27
2019-02-19T19:04:40.413Z,3.87
2019-02-19T19:06:15.218Z,3.83
2019-02-19T19:07:49.956Z,4.57
2019-02-19T19:09:24.846Z,4.03
2019-02-19T19:10:59.670Z,4.77
2019-02-19T19:12:34.447Z,4.77
2019-02-19T19:14:09.170Z,7.13
2019-02-19T19:15:45.150Z,5.47
2019-02-19T19:17:19.853Z,6.17
2019-02-19T19:18:54.600Z,5.07
2019-02-19T19:20:29.330Z,5.90
2019-02-19T19:22:04.221Z,5.87
2019-02-19T19:23:38.970Z,7.27
2019-02-19T19:25:14.075Z,5.77
2019-02-19T19:26:48.873Z,5.00
2019-02-19T19:28:23.734Z,6.90
2019-02-19T19:29:58.470Z,7.30
2019-02-19T19:31:34.106Z,8.90
2019-02-19T19:33:08.951Z,5.70
2019-02-19T19:34:43.741Z,6.53
2019-02-19T19:36:18.515Z,6.23
2019-02-19T19:37:53.246Z,7.30
2019-02-19T19:39:28.935Z,6.03
2019-02-19T19:41:03.686Z,5.93
2019-02-19T19:42:38.403Z,5.13
2019-02-19T19:44:13.147Z,4.93
2019-02-19T19:45:50.228Z,9.07
2019-02-19T19:47:25.037Z,5.33
2019-02-19T19:48:59.786Z,6.37
2019-02-19T19:50:34.536Z,5.33
2019-02-19T19:52:09.370Z,3.80
2019-02-19T19:53:44.106Z,6.17
2019-02-19T19:55:18.914Z,6.07
2019-02-19T19:56:53.707Z,6.20
2019-02-19T19:58:28.486Z,5.27
2019-02-19T20:00:03.384Z,5.93
2019-02-19T20:01:39.822Z,6.33
2019-02-19T20:03:14.649Z,7.13
2019-02-19T20:04:49.434Z,5.33
2019-02-19T20:06:24.226Z,7.60
2019-02-19T20:07:59.002Z,6.83
2019-02-19T20:09:33.788Z,6.07
2019-02-19T20:11:08.496Z,5.70
2019-02-19T20:12:43.277Z,5.07
2019-02-19T20:14:17.986Z,4.67
2019-02-19T20:15:52.831Z,5.40
2019-02-19T20:17:27.612Z,5.37
2019-02-19T20:19:02.356Z,5.67
2019-02-19T20:20:37.241Z,5.70
2019-02-19T20:22:11.983Z,5.20
2019-02-19T20:23:46.758Z,4.37
2019-02-19T20:25:21.526Z,7.37
2019-02-19T20:26:56.361Z,6.23
2019-02-19T20:28:32.169Z,4.97
2019-02-19T20:30:09.245Z,6.53
2019-02-19T20:31:44.404Z,5.90
2019-02-19T20:33:19.447Z,5.47
2019-02-19T20:34:54.218Z,5.87
2019-02-19T20:36:29.017Z,7.43
2019-02-19T20:38:03.872Z,8.00
2019-02-19T20:39:38.613Z,6.83
2019-02-19T20:41:13.391Z,5.67
2019-02-19T20:42:48.440Z,5.67
2019-02-19T20:44:23.182Z,8.23
2019-02-19T20:45:58.014Z,7.50
2019-02-19T20:47:32.885Z,6.57
2019-02-19T20:49:07.596Z,5.67
2019-02-19T20:50:42.318Z,6.93
2019-02-19T20:52:17.186Z,7.07
2019-02-19T20:53:51.910Z,6.57
2019-02-19T20:55:26.764Z,6.80
2019-02-19T20:57:01.554Z,8.23
2019-02-19T20:58:36.298Z,6.67
2019-02-19T21:00:14.059Z,7.60
2019-02-19T21:01:50.553Z,7.90
2019-02-19T21:03:25.267Z,7.53
2019-02-19T21:05:00.284Z,6.73
2019-02-19T21:06:35.172Z,7.13
2019-02-19T21:08:09.907Z,6.57
2019-02-19T21:09:44.766Z,5.57
2019-02-19T21:11:19.629Z,5.97
2019-02-19T21:12:55.324Z,8.30
2019-02-19T21:14:30.125Z,7.83
2019-02-19T21:16:05.006Z,8.73
2019-02-19T21:17:39.828Z,8.27
2019-02-19T21:19:14.615Z,7.57
2019-02-19T21:20:49.470Z,9.73
2019-02-19T21:22:25.460Z,6.87
2019-02-19T21:24:00.296Z,7.57
2019-02-19T21:25:35.089Z,7.70
2019-02-19T21:27:09.839Z,7.23
2019-02-19T21:28:44.685Z,9.13
2019-02-19T21:30:19.555Z,7.33
2019-02-19T21:31:54.287Z,6.53
2019-02-19T21:33:29.111Z,7.40
2019-02-19T21:35:05.701Z,8.00
2019-02-19T21:36:40.441Z,8.83
2019-02-19T21:38:15.235Z,8.83
2019-02-19T21:39:50.030Z,8.40
2019-02-19T21:41:24.759Z,6.70
2019-02-19T21:42:59.532Z,7.30
2019-02-19T21:44:34.341Z,7.63
2019-02-19T21:46:09.177Z,5.73
2019-02-19T21:47:44.034Z,7.03
2019-02-19T21:49:18.825Z,5.80
2019-02-19T21:50:53.670Z,6.43
2019-02-19T21:52:28.506Z,5.70
2019-02-19T21:54:03.231Z,4.83
2019-02-19T21:55:38.930Z,7.40
2019-02-19T21:57:13.647Z,4.40
2019-02-19T21:58:48.461Z,5.93
2019-02-19T22:00:23.485Z,5.90
2019-02-19T22:01:59.938Z,7.33